sensor_id;sensor_type;location;lat;lon;timestamp;temperature;humidity
63966;DHT22;50151;52.030;5.350;2023-08-31T06:31:51;13.30;99.90
63966;DHT22;50151;52.030;5.350;2023-08-31T06:34:18;13.30;99.90
63966;DHT22;50151;52.030;5.350;2023-08-31T06:36:44;13.30;99.90
63966;DHT22;50151;52.030;5.350;2023-08-31T06:39:11;13.30;99.90
63966;DHT22;50151;52.030;5.350;2023-08-31T06:41:38;13.40;99.90
63966;DHT22;50151;52.030;5.350;2023-08-31T06:44:04;13.40;99.90
63966;DHT22;50151;52.030;5.350;2023-08-31T06:46:32;13.40;99.90
63966;DHT22;50151;52.030;5.350;2023-08-31T06:49:04;13.30;99.90
63966;DHT22;50151;52.030;5.350;2023-08-31T06:51:32;13.30;99.90
63966;DHT22;50151;52.030;5.350;2023-08-31T06:54:00;13.40;99.90
63966;DHT22;50151;52.030;5.350;2023-08-31T06:56:35;13.40;99.90
63966;DHT22;50151;52.030;5.350;2023-08-31T06:59:02;13.50;99.90
63966;DHT22;50151;52.030;5.350;2023-08-31T07:01:29;13.50;99.90
63966;DHT22;50151;52.030;5.350;2023-08-31T07:03:56;13.60;99.90
63966;DHT22;50151;52.030;5.350;2023-08-31T07:06:23;13.60;99.90
63966;DHT22;50151;52.030;5.350;2023-08-31T07:08:50;13.50;99.90
63966;DHT22;50151;52.030;5.350;2023-08-31T07:11:17;13.50;99.90
63966;DHT22;50151;52.030;5.350;2023-08-31T07:13:44;13.60;99.90
63966;DHT22;50151;52.030;5.350;2023-08-31T07:16:11;13.60;99.90
63966;DHT22;50151;52.030;5.350;2023-08-31T07:18:37;13.60;99.90
63966;DHT22;50151;52.030;5.350;2023-08-31T07:21:04;13.60;99.90
63966;DHT22;50151;52.030;5.350;2023-08-31T07:23:31;13.70;99.90
63966;DHT22;50151;52.030;5.350;2023-08-31T07:25:58;13.70;99.90
63966;DHT22;50151;52.030;5.350;2023-08-31T07:28:27;13.70;99.90
63966;DHT22;50151;52.030;5.350;2023-08-31T07:31:04;13.70;99.90
63966;DHT22;50151;52.030;5.350;2023-08-31T07:33:31;13.80;99.90
63966;DHT22;50151;52.030;5.350;2023-08-31T07:35:59;13.80;99.90
63966;DHT22;50151;52.030;5.350;2023-08-31T07:38:27;13.80;99.90
63966;DHT22;50151;52.030;5.350;2023-08-31T07:40:54;13.90;99.90
63966;DHT22;50151;52.030;5.350;2023-08-31T07:43:21;14.00;99.90
63966;DHT22;50151;52.030;5.350;2023-08-31T07:45:48;14.00;99.90
63966;DHT22;50151;52.030;5.350;2023-08-31T07:48:15;14.00;99.90
63966;DHT22;50151;52.030;5.350;2023-08-31T07:50:42;14.10;99.90
63966;DHT22;50151;52.030;5.350;2023-08-31T07:53:10;14.10;99.90
63966;DHT22;50151;52.030;5.350;2023-08-31T07:55:38;14.30;99.90
63966;DHT22;50151;52.030;5.350;2023-08-31T07:58:05;14.40;99.90
63966;DHT22;50151;52.030;5.350;2023-08-31T08:00:32;14.40;99.90
63966;DHT22;50151;52.030;5.350;2023-08-31T08:02:59;14.40;99.90
63966;DHT22;50151;52.030;5.350;2023-08-31T08:05:27;14.50;99.90
63966;DHT22;50151;52.030;5.350;2023-08-31T08:07:53;14.50;99.90
63966;DHT22;50151;52.030;5.350;2023-08-31T08:10:20;14.60;99.90
63966;DHT22;50151;52.030;5.350;2023-08-31T08:12:47;14.70;99.90
63966;DHT22;50151;52.030;5.350;2023-08-31T08:15:13;14.70;99.90
63966;DHT22;50151;52.030;5.350;2023-08-31T08:17:40;14.80;99.90
63966;DHT22;50151;52.030;5.350;2023-08-31T08:20:08;15.00;99.90
63966;DHT22;50151;52.030;5.350;2023-08-31T08:22:35;15.00;99.90
63966;DHT22;50151;52.030;5.350;2023-08-31T08:25:03;15.10;99.90
63966;DHT22;50151;52.030;5.350;2023-08-31T08:27:29;15.20;99.90
63966;DHT22;50151;52.030;5.350;2023-08-31T08:30:01;15.30;99.90
63966;DHT22;50151;52.030;5.350;2023-08-31T08:32:27;15.40;99.90
63966;DHT22;50151;52.030;5.350;2023-08-31T08:34:54;15.50;99.90
63966;DHT22;50151;52.030;5.350;2023-08-31T08:37:21;15.60;99.90
63966;DHT22;50151;52.030;5.350;2023-08-31T08:39:49;15.70;99.90
63966;DHT22;50151;52.030;5.350;2023-08-31T08:42:19;15.80;99.90
63966;DHT22;50151;52.030;5.350;2023-08-31T08:44:46;16.00;99.90
63966;DHT22;50151;52.030;5.350;2023-08-31T08:47:14;16.00;99.90
63966;DHT22;50151;52.030;5.350;2023-08-31T08:49:41;16.10;99.90
63966;DHT22;50151;52.030;5.350;2023-08-31T08:52:09;16.20;99.90
63966;DHT22;50151;52.030;5.350;2023-08-31T08:54:36;16.40;99.90
63966;DHT22;50151;52.030;5.350;2023-08-31T08:57:06;16.50;99.90
63966;DHT22;50151;52.030;5.350;2023-08-31T08:59:33;16.70;99.90
63966;DHT22;50151;52.030;5.350;2023-08-31T09:01:59;16.80;99.90
63966;DHT22;50151;52.030;5.350;2023-08-31T09:04:29;16.80;99.90
63966;DHT22;50151;52.030;5.350;2023-08-31T09:06:56;16.90;99.90
63966;DHT22;50151;52.030;5.350;2023-08-31T09:09:23;17.10;99.90
63966;DHT22;50151;52.030;5.350;2023-08-31T09:11:50;17.10;99.90
63966;DHT22;50151;52.030;5.350;2023-08-31T09:14:19;16.90;99.90
63966;DHT22;50151;52.030;5.350;2023-08-31T09:16:50;16.80;99.90
63966;DHT22;50151;52.030;5.350;2023-08-31T09:19:22;16.60;99.90
63966;DHT22;50151;52.030;5.350;2023-08-31T09:21:50;16.50;99.90
63966;DHT22;50151;52.030;5.350;2023-08-31T09:24:18;16.50;99.90
63966;DHT22;50151;52.030;5.350;2023-08-31T09:26:47;16.60;99.90
63966;DHT22;50151;52.030;5.350;2023-08-31T09:29:14;16.80;99.90
63966;DHT22;50151;52.030;5.350;2023-08-31T09:31:42;17.10;99.90
63966;DHT22;50151;52.030;5.350;2023-08-31T09:34:10;17.20;99.90
63966;DHT22;50151;52.030;5.350;2023-08-31T09:36:38;17.40;99.90
63966;DHT22;50151;52.030;5.350;2023-08-31T09:39:08;17.50;99.90
63966;DHT22;50151;52.030;5.350;2023-08-31T09:41:55;17.60;99.90
63966;DHT22;50151;52.030;5.350;2023-08-31T09:44:22;17.70;99.90
63966;DHT22;50151;52.030;5.350;2023-08-31T09:46:49;18.00;99.90
63966;DHT22;50151;52.030;5.350;2023-08-31T09:49:17;18.00;99.90
63966;DHT22;50151;52.030;5.350;2023-08-31T09:51:46;17.90;99.90
63966;DHT22;50151;52.030;5.350;2023-08-31T09:54:15;17.80;99.90
63966;DHT22;50151;52.030;5.350;2023-08-31T09:56:44;17.90;99.90
63966;DHT22;50151;52.030;5.350;2023-08-31T09:59:13;18.00;99.90
63966;DHT22;50151;52.030;5.350;2023-08-31T10:01:41;18.00;99.90
63966;DHT22;50151;52.030;5.350;2023-08-31T10:04:09;18.20;99.90
63966;DHT22;50151;52.030;5.350;2023-08-31T10:06:35;18.30;99.90
63966;DHT22;50151;52.030;5.350;2023-08-31T10:09:06;18.30;99.90
63966;DHT22;50151;52.030;5.350;2023-08-31T10:11:33;18.20;99.90
63966;DHT22;50151;52.030;5.350;2023-08-31T10:14:02;18.30;99.90
63966;DHT22;50151;52.030;5.350;2023-08-31T10:16:30;18.30;99.90
63966;DHT22;50151;52.030;5.350;2023-08-31T10:18:58;18.30;99.90
63966;DHT22;50151;52.030;5.350;2023-08-31T10:21:25;18.20;99.90
63966;DHT22;50151;52.030;5.350;2023-08-31T10:23:52;18.30;99.90
63966;DHT22;50151;52.030;5.350;2023-08-31T10:26:30;18.30;99.90
63966;DHT22;50151;52.030;5.350;2023-08-31T10:28:58;18.20;99.90
63966;DHT22;50151;52.030;5.350;2023-08-31T10:31:33;18.10;99.90
63966;DHT22;50151;52.030;5.350;2023-08-31T10:34:04;18.20;99.90
63966;DHT22;50151;52.030;5.350;2023-08-31T10:36:40;18.20;99.90
63966;DHT22;50151;52.030;5.350;2023-08-31T10:39:12;18.10;99.90
63966;DHT22;50151;52.030;5.350;2023-08-31T10:41:40;18.30;99.90
63966;DHT22;50151;52.030;5.350;2023-08-31T10:44:23;18.20;99.90
63966;DHT22;50151;52.030;5.350;2023-08-31T10:46:51;18.60;99.90
63966;DHT22;50151;52.030;5.350;2023-08-31T10:49:20;18.80;99.90
63966;DHT22;50151;52.030;5.350;2023-08-31T10:51:55;19.00;99.90
63966;DHT22;50151;52.030;5.350;2023-08-31T10:54:23;18.90;99.90
63966;DHT22;50151;52.030;5.350;2023-08-31T10:56:55;18.90;99.90
63966;DHT22;50151;52.030;5.350;2023-08-31T10:59:23;18.90;99.90
63966;DHT22;50151;52.030;5.350;2023-08-31T11:01:52;18.80;99.90
63966;DHT22;50151;52.030;5.350;2023-08-31T11:04:23;19.10;99.90
63966;DHT22;50151;52.030;5.350;2023-08-31T11:09:40;19.30;99.90
63966;DHT22;50151;52.030;5.350;2023-08-31T11:12:08;19.30;99.90
63966;DHT22;50151;52.030;5.350;2023-08-31T11:14:34;19.40;99.90
63966;DHT22;50151;52.030;5.350;2023-08-31T11:17:02;19.50;99.90
63966;DHT22;50151;52.030;5.350;2023-08-31T11:19:34;19.70;99.90
63966;DHT22;50151;52.030;5.350;2023-08-31T11:22:02;19.70;99.90
63966;DHT22;50151;52.030;5.350;2023-08-31T11:24:33;19.90;99.90
63966;DHT22;50151;52.030;5.350;2023-08-31T11:27:00;19.90;99.90
63966;DHT22;50151;52.030;5.350;2023-08-31T11:29:30;19.90;99.90
63966;DHT22;50151;52.030;5.350;2023-08-31T11:31:57;19.90;99.90
63966;DHT22;50151;52.030;5.350;2023-08-31T11:34:27;19.80;99.90
63966;DHT22;50151;52.030;5.350;2023-08-31T11:36:54;20.20;99.90
63966;DHT22;50151;52.030;5.350;2023-08-31T11:39:21;20.10;99.90
63966;DHT22;50151;52.030;5.350;2023-08-31T11:41:49;20.00;99.90
63966;DHT22;50151;52.030;5.350;2023-08-31T11:44:16;20.10;99.90
63966;DHT22;50151;52.030;5.350;2023-08-31T11:46:45;20.10;99.90
63966;DHT22;50151;52.030;5.350;2023-08-31T11:49:14;20.10;99.90
63966;DHT22;50151;52.030;5.350;2023-08-31T11:51:42;20.30;99.90
63966;DHT22;50151;52.030;5.350;2023-08-31T11:54:10;20.30;99.90
63966;DHT22;50151;52.030;5.350;2023-08-31T11:56:44;20.50;99.90
63966;DHT22;50151;52.030;5.350;2023-08-31T11:59:17;20.60;99.90
63966;DHT22;50151;52.030;5.350;2023-08-31T12:01:46;20.50;99.90
63966;DHT22;50151;52.030;5.350;2023-08-31T12:04:20;20.40;99.90
63966;DHT22;50151;52.030;5.350;2023-08-31T12:06:50;20.60;99.90
63966;DHT22;50151;52.030;5.350;2023-08-31T12:09:18;20.50;99.90
63966;DHT22;50151;52.030;5.350;2023-08-31T12:11:51;20.50;99.90
63966;DHT22;50151;52.030;5.350;2023-08-31T12:14:23;20.70;99.90
63966;DHT22;50151;52.030;5.350;2023-08-31T12:16:51;20.20;99.90
63966;DHT22;50151;52.030;5.350;2023-08-31T12:19:18;20.20;99.90
63966;DHT22;50151;52.030;5.350;2023-08-31T12:21:46;20.20;99.90
63966;DHT22;50151;52.030;5.350;2023-08-31T12:24:13;20.60;99.90
63966;DHT22;50151;52.030;5.350;2023-08-31T12:26:40;20.90;99.90
63966;DHT22;50151;52.030;5.350;2023-08-31T12:29:07;21.10;99.90
63966;DHT22;50151;52.030;5.350;2023-08-31T12:31:34;21.30;99.90
63966;DHT22;50151;52.030;5.350;2023-08-31T12:34:01;21.20;99.90
63966;DHT22;50151;52.030;5.350;2023-08-31T12:36:32;21.20;99.90
63966;DHT22;50151;52.030;5.350;2023-08-31T12:39:03;21.00;99.90
63966;DHT22;50151;52.030;5.350;2023-08-31T12:41:33;21.20;99.90
63966;DHT22;50151;52.030;5.350;2023-08-31T12:44:00;21.30;99.90
63966;DHT22;50151;52.030;5.350;2023-08-31T12:46:27;21.20;99.90
63966;DHT22;50151;52.030;5.350;2023-08-31T12:48:53;21.50;99.90
63966;DHT22;50151;52.030;5.350;2023-08-31T12:51:20;21.50;99.90
63966;DHT22;50151;52.030;5.350;2023-08-31T12:53:47;21.80;99.90
63966;DHT22;50151;52.030;5.350;2023-08-31T12:56:15;21.90;99.90
63966;DHT22;50151;52.030;5.350;2023-08-31T12:58:51;22.20;99.90
63966;DHT22;50151;52.030;5.350;2023-08-31T13:01:19;22.00;99.90
63966;DHT22;50151;52.030;5.350;2023-08-31T13:03:47;22.10;99.90
63966;DHT22;50151;52.030;5.350;2023-08-31T13:06:14;21.70;99.90
63966;DHT22;50151;52.030;5.350;2023-08-31T13:08:45;21.60;99.90
63966;DHT22;50151;52.030;5.350;2023-08-31T13:11:12;21.50;99.90
63966;DHT22;50151;52.030;5.350;2023-08-31T13:13:40;21.50;99.90
63966;DHT22;50151;52.030;5.350;2023-08-31T13:16:07;21.80;99.90
63966;DHT22;50151;52.030;5.350;2023-08-31T13:18:34;22.10;99.90
63966;DHT22;50151;52.030;5.350;2023-08-31T13:21:00;22.70;99.90
63966;DHT22;50151;52.030;5.350;2023-08-31T13:23:28;22.50;99.90
63966;DHT22;50151;52.030;5.350;2023-08-31T13:25:55;22.80;99.90
63966;DHT22;50151;52.030;5.350;2023-08-31T13:28:22;22.60;99.90
63966;DHT22;50151;52.030;5.350;2023-08-31T13:30:50;22.80;99.90
63966;DHT22;50151;52.030;5.350;2023-08-31T13:33:21;22.60;99.90
63966;DHT22;50151;52.030;5.350;2023-08-31T13:35:48;22.80;99.90
63966;DHT22;50151;52.030;5.350;2023-08-31T13:38:15;23.40;99.90
63966;DHT22;50151;52.030;5.350;2023-08-31T13:40:41;23.00;99.90
63966;DHT22;50151;52.030;5.350;2023-08-31T13:43:08;22.90;99.90
63966;DHT22;50151;52.030;5.350;2023-08-31T13:45:35;22.60;99.90
63966;DHT22;50151;52.030;5.350;2023-08-31T13:48:01;22.60;99.90
63966;DHT22;50151;52.030;5.350;2023-08-31T13:50:30;22.50;99.90
63966;DHT22;50151;52.030;5.350;2023-08-31T13:52:57;22.50;99.90
63966;DHT22;50151;52.030;5.350;2023-08-31T13:55:24;22.30;99.90
63966;DHT22;50151;52.030;5.350;2023-08-31T13:57:50;22.50;99.90
63966;DHT22;50151;52.030;5.350;2023-08-31T14:00:17;23.10;99.90
63966;DHT22;50151;52.030;5.350;2023-08-31T14:02:44;23.30;99.90
63966;DHT22;50151;52.030;5.350;2023-08-31T14:05:12;23.70;99.90
63966;DHT22;50151;52.030;5.350;2023-08-31T14:07:39;23.40;99.90
63966;DHT22;50151;52.030;5.350;2023-08-31T14:10:06;23.50;99.90
63966;DHT22;50151;52.030;5.350;2023-08-31T14:12:33;23.90;99.90
63966;DHT22;50151;52.030;5.350;2023-08-31T14:15:00;23.70;99.90
63966;DHT22;50151;52.030;5.350;2023-08-31T14:17:30;23.40;99.90
63966;DHT22;50151;52.030;5.350;2023-08-31T14:20:01;23.60;99.90
63966;DHT22;50151;52.030;5.350;2023-08-31T14:22:32;23.60;99.90
63966;DHT22;50151;52.030;5.350;2023-08-31T14:25:00;23.10;99.90
63966;DHT22;50151;52.030;5.350;2023-08-31T14:27:27;22.70;99.90
63966;DHT22;50151;52.030;5.350;2023-08-31T14:29:54;22.90;99.90
63966;DHT22;50151;52.030;5.350;2023-08-31T14:32:21;23.20;99.90
63966;DHT22;50151;52.030;5.350;2023-08-31T14:34:49;22.70;99.90
63966;DHT22;50151;52.030;5.350;2023-08-31T14:37:15;22.40;99.90
63966;DHT22;50151;52.030;5.350;2023-08-31T14:39:42;23.00;99.90
63966;DHT22;50151;52.030;5.350;2023-08-31T14:42:09;22.60;99.90
63966;DHT22;50151;52.030;5.350;2023-08-31T14:44:35;23.40;99.90
63966;DHT22;50151;52.030;5.350;2023-08-31T14:47:02;23.50;99.90
63966;DHT22;50151;52.030;5.350;2023-08-31T14:49:29;23.60;99.90
63966;DHT22;50151;52.030;5.350;2023-08-31T14:51:56;23.50;99.90
63966;DHT22;50151;52.030;5.350;2023-08-31T14:54:23;23.90;99.90
63966;DHT22;50151;52.030;5.350;2023-08-31T14:56:50;23.90;99.90
63966;DHT22;50151;52.030;5.350;2023-08-31T14:59:17;23.40;99.90
63966;DHT22;50151;52.030;5.350;2023-08-31T15:01:44;23.60;99.90
63966;DHT22;50151;52.030;5.350;2023-08-31T15:04:12;23.40;99.90
63966;DHT22;50151;52.030;5.350;2023-08-31T15:06:39;23.30;99.90
63966;DHT22;50151;52.030;5.350;2023-08-31T15:09:05;23.10;99.90
63966;DHT22;50151;52.030;5.350;2023-08-31T15:11:32;23.40;99.90
63966;DHT22;50151;52.030;5.350;2023-08-31T15:13:59;22.80;99.90
63966;DHT22;50151;52.030;5.350;2023-08-31T15:16:26;23.00;99.90
63966;DHT22;50151;52.030;5.350;2023-08-31T15:18:53;23.30;99.90
63966;DHT22;50151;52.030;5.350;2023-08-31T15:21:19;23.10;99.90
63966;DHT22;50151;52.030;5.350;2023-08-31T15:23:46;22.60;99.90
63966;DHT22;50151;52.030;5.350;2023-08-31T15:26:13;22.60;99.90
63966;DHT22;50151;52.030;5.350;2023-08-31T15:28:41;22.70;99.90
63966;DHT22;50151;52.030;5.350;2023-08-31T15:31:08;22.60;99.90
63966;DHT22;50151;52.030;5.350;2023-08-31T15:33:35;22.80;99.90
63966;DHT22;50151;52.030;5.350;2023-08-31T15:36:03;22.80;99.90
63966;DHT22;50151;52.030;5.350;2023-08-31T15:38:32;22.90;99.90
63966;DHT22;50151;52.030;5.350;2023-08-31T15:40:59;22.70;99.90
63966;DHT22;50151;52.030;5.350;2023-08-31T15:43:34;22.60;99.90
63966;DHT22;50151;52.030;5.350;2023-08-31T15:46:02;22.90;99.90
63966;DHT22;50151;52.030;5.350;2023-08-31T15:48:29;22.80;99.90
63966;DHT22;50151;52.030;5.350;2023-08-31T15:50:57;22.20;99.90
63966;DHT22;50151;52.030;5.350;2023-08-31T15:53:24;22.40;99.90
63966;DHT22;50151;52.030;5.350;2023-08-31T15:55:52;22.80;99.90
63966;DHT22;50151;52.030;5.350;2023-08-31T15:58:19;22.50;99.90
63966;DHT22;50151;52.030;5.350;2023-08-31T16:00:46;22.10;99.90
63966;DHT22;50151;52.030;5.350;2023-08-31T16:03:13;22.00;99.90
63966;DHT22;50151;52.030;5.350;2023-08-31T16:05:40;22.00;99.90
63966;DHT22;50151;52.030;5.350;2023-08-31T16:08:07;22.10;99.90
63966;DHT22;50151;52.030;5.350;2023-08-31T16:10:33;21.80;99.90
63966;DHT22;50151;52.030;5.350;2023-08-31T16:13:00;22.00;99.90
63966;DHT22;50151;52.030;5.350;2023-08-31T16:15:27;21.50;99.90
63966;DHT22;50151;52.030;5.350;2023-08-31T16:17:54;21.60;99.90
63966;DHT22;50151;52.030;5.350;2023-08-31T16:20:21;21.40;99.90
63966;DHT22;50151;52.030;5.350;2023-08-31T16:22:48;21.60;99.90
63966;DHT22;50151;52.030;5.350;2023-08-31T16:25:15;21.30;99.90
63966;DHT22;50151;52.030;5.350;2023-08-31T16:27:45;21.40;99.90
63966;DHT22;50151;52.030;5.350;2023-08-31T16:30:13;21.30;99.90
63966;DHT22;50151;52.030;5.350;2023-08-31T16:32:42;21.20;99.90
63966;DHT22;50151;52.030;5.350;2023-08-31T16:35:13;21.20;99.90
63966;DHT22;50151;52.030;5.350;2023-08-31T16:37:41;21.30;99.90
63966;DHT22;50151;52.030;5.350;2023-08-31T16:40:12;21.40;99.90
63966;DHT22;50151;52.030;5.350;2023-08-31T16:42:40;21.40;99.90
63966;DHT22;50151;52.030;5.350;2023-08-31T16:45:08;21.50;99.90
63966;DHT22;50151;52.030;5.350;2023-08-31T16:47:36;21.30;99.90
63966;DHT22;50151;52.030;5.350;2023-08-31T16:50:03;21.40;99.90
63966;DHT22;50151;52.030;5.350;2023-08-31T16:52:30;21.20;99.90
63966;DHT22;50151;52.030;5.350;2023-08-31T16:54:58;21.10;99.90
63966;DHT22;50151;52.030;5.350;2023-08-31T16:57:25;21.20;99.90
63966;DHT22;50151;52.030;5.350;2023-08-31T16:59:52;21.20;99.90
63966;DHT22;50151;52.030;5.350;2023-08-31T17:02:19;21.20;99.90
63966;DHT22;50151;52.030;5.350;2023-08-31T17:04:46;21.20;99.90
63966;DHT22;50151;52.030;5.350;2023-08-31T17:07:13;21.20;99.90
63966;DHT22;50151;52.030;5.350;2023-08-31T17:09:41;21.10;99.90
63966;DHT22;50151;52.030;5.350;2023-08-31T17:12:08;20.70;99.90
63966;DHT22;50151;52.030;5.350;2023-08-31T17:14:35;20.70;99.90
63966;DHT22;50151;52.030;5.350;2023-08-31T17:17:02;20.60;99.90
63966;DHT22;50151;52.030;5.350;2023-08-31T17:19:30;20.60;99.90
63966;DHT22;50151;52.030;5.350;2023-08-31T17:21:56;20.50;99.90
63966;DHT22;50151;52.030;5.350;2023-08-31T17:24:23;20.50;99.90
63966;DHT22;50151;52.030;5.350;2023-08-31T17:26:50;20.40;99.90
63966;DHT22;50151;52.030;5.350;2023-08-31T17:29:17;20.50;99.90
63966;DHT22;50151;52.030;5.350;2023-08-31T17:31:44;20.40;99.90
63966;DHT22;50151;52.030;5.350;2023-08-31T17:34:11;20.40;99.90
63966;DHT22;50151;52.030;5.350;2023-08-31T17:36:42;20.30;99.90
63966;DHT22;50151;52.030;5.350;2023-08-31T17:39:11;20.20;99.90
63966;DHT22;50151;52.030;5.350;2023-08-31T17:41:39;20.10;99.90
63966;DHT22;50151;52.030;5.350;2023-08-31T17:44:06;19.90;99.90
63966;DHT22;50151;52.030;5.350;2023-08-31T17:46:33;19.90;99.90
63966;DHT22;50151;52.030;5.350;2023-08-31T17:49:00;19.90;99.90
63966;DHT22;50151;52.030;5.350;2023-08-31T17:51:27;19.80;99.90
63966;DHT22;50151;52.030;5.350;2023-08-31T17:53:54;19.70;99.90
63966;DHT22;50151;52.030;5.350;2023-08-31T17:56:25;19.50;99.90
63966;DHT22;50151;52.030;5.350;2023-08-31T17:58:54;19.40;99.90
63966;DHT22;50151;52.030;5.350;2023-08-31T18:01:21;19.30;99.90
63966;DHT22;50151;52.030;5.350;2023-08-31T18:03:48;19.20;99.90
63966;DHT22;50151;52.030;5.350;2023-08-31T18:06:15;19.10;99.90
63966;DHT22;50151;52.030;5.350;2023-08-31T18:08:42;19.00;99.90
63966;DHT22;50151;52.030;5.350;2023-08-31T18:11:14;18.80;99.90
63966;DHT22;50151;52.030;5.350;2023-08-31T18:13:41;18.70;99.90
63966;DHT22;50151;52.030;5.350;2023-08-31T18:16:07;18.60;99.90
63966;DHT22;50151;52.030;5.350;2023-08-31T18:18:34;18.60;99.90
63966;DHT22;50151;52.030;5.350;2023-08-31T18:21:01;18.50;99.90
63966;DHT22;50151;52.030;5.350;2023-08-31T18:23:29;18.40;99.90
63966;DHT22;50151;52.030;5.350;2023-08-31T18:25:56;18.20;99.90
63966;DHT22;50151;52.030;5.350;2023-08-31T18:28:23;18.10;99.90
63966;DHT22;50151;52.030;5.350;2023-08-31T18:30:58;18.10;99.90
63966;DHT22;50151;52.030;5.350;2023-08-31T18:33:27;18.10;99.90
63966;DHT22;50151;52.030;5.350;2023-08-31T18:35:55;17.90;99.90
63966;DHT22;50151;52.030;5.350;2023-08-31T18:38:27;17.90;99.90
63966;DHT22;50151;52.030;5.350;2023-08-31T18:40:54;17.80;99.90
63966;DHT22;50151;52.030;5.350;2023-08-31T18:43:23;17.70;99.90
63966;DHT22;50151;52.030;5.350;2023-08-31T18:45:52;17.60;99.90
63966;DHT22;50151;52.030;5.350;2023-08-31T18:48:19;17.50;99.90
63966;DHT22;50151;52.030;5.350;2023-08-31T18:50:46;17.40;99.90
63966;DHT22;50151;52.030;5.350;2023-08-31T18:53:13;17.30;99.90
63966;DHT22;50151;52.030;5.350;2023-08-31T18:55:40;17.30;99.90
63966;DHT22;50151;52.030;5.350;2023-08-31T18:58:07;17.20;99.90
63966;DHT22;50151;52.030;5.350;2023-08-31T19:00:35;17.20;99.90
63966;DHT22;50151;52.030;5.350;2023-08-31T19:03:02;17.10;99.90
63966;DHT22;50151;52.030;5.350;2023-08-31T19:05:29;17.00;99.90
63966;DHT22;50151;52.030;5.350;2023-08-31T19:07:56;16.90;99.90
63966;DHT22;50151;52.030;5.350;2023-08-31T19:10:23;16.90;99.90
63966;DHT22;50151;52.030;5.350;2023-08-31T19:12:50;16.80;99.90
63966;DHT22;50151;52.030;5.350;2023-08-31T19:15:17;16.70;99.90
63966;DHT22;50151;52.030;5.350;2023-08-31T19:17:44;16.70;99.90
63966;DHT22;50151;52.030;5.350;2023-08-31T19:20:14;16.60;99.90
63966;DHT22;50151;52.030;5.350;2023-08-31T19:22:42;16.50;99.90
63966;DHT22;50151;52.030;5.350;2023-08-31T19:25:10;16.50;99.90
63966;DHT22;50151;52.030;5.350;2023-08-31T19:27:39;16.30;99.90
63966;DHT22;50151;52.030;5.350;2023-08-31T19:30:07;16.20;99.90
63966;DHT22;50151;52.030;5.350;2023-08-31T19:32:34;16.20;99.90
63966;DHT22;50151;52.030;5.350;2023-08-31T19:35:02;16.20;99.90
63966;DHT22;50151;52.030;5.350;2023-08-31T19:37:50;16.10;99.90
63966;DHT22;50151;52.030;5.350;2023-08-31T19:40:18;16.20;99.90
63966;DHT22;50151;52.030;5.350;2023-08-31T19:42:49;16.20;99.90
63966;DHT22;50151;52.030;5.350;2023-08-31T19:45:16;16.20;99.90
63966;DHT22;50151;52.030;5.350;2023-08-31T19:47:45;16.20;99.90
63966;DHT22;50151;52.030;5.350;2023-08-31T19:50:15;16.10;99.90
63966;DHT22;50151;52.030;5.350;2023-08-31T19:52:42;16.00;99.90
63966;DHT22;50151;52.030;5.350;2023-08-31T19:55:12;16.00;99.90
63966;DHT22;50151;52.030;5.350;2023-08-31T19:57:39;15.90;99.90
63966;DHT22;50151;52.030;5.350;2023-08-31T20:00:07;16.00;99.90
63966;DHT22;50151;52.030;5.350;2023-08-31T20:02:35;15.90;99.90
63966;DHT22;50151;52.030;5.350;2023-08-31T20:05:02;15.90;99.90
63966;DHT22;50151;52.030;5.350;2023-08-31T20:07:30;15.90;99.90
63966;DHT22;50151;52.030;5.350;2023-08-31T20:09:57;15.90;99.90
63966;DHT22;50151;52.030;5.350;2023-08-31T20:12:24;15.80;99.90
63966;DHT22;50151;52.030;5.350;2023-08-31T20:14:51;15.80;99.90
63966;DHT22;50151;52.030;5.350;2023-08-31T20:17:18;15.90;99.90
63966;DHT22;50151;52.030;5.350;2023-08-31T20:19:45;15.80;99.90
63966;DHT22;50151;52.030;5.350;2023-08-31T20:22:11;15.80;99.90
63966;DHT22;50151;52.030;5.350;2023-08-31T20:24:38;15.70;99.90
63966;DHT22;50151;52.030;5.350;2023-08-31T20:27:05;15.80;99.90
63966;DHT22;50151;52.030;5.350;2023-08-31T20:29:32;15.80;99.90
63966;DHT22;50151;52.030;5.350;2023-08-31T20:32:00;15.80;99.90
63966;DHT22;50151;52.030;5.350;2023-08-31T20:34:25;15.70;99.90
63966;DHT22;50151;52.030;5.350;2023-08-31T20:36:51;15.70;99.90
63966;DHT22;50151;52.030;5.350;2023-08-31T20:39:20;15.70;99.90
63966;DHT22;50151;52.030;5.350;2023-08-31T20:41:48;15.70;99.90
63966;DHT22;50151;52.030;5.350;2023-08-31T20:44:14;15.70;99.90
